sensor_id;sensor_type;location;lat;lon;timestamp;pressure;altitude;pressure_sealevel;temperature;humidity
12666;BME280;58531;59.050;17.416;2023-02-01T00:00:28;98484.88;;;-5.51;100.00
12666;BME280;58531;59.050;17.416;2023-02-01T00:02:54;98486.00;;;-5.52;100.00
12666;BME280;58531;59.050;17.416;2023-02-01T00:05:21;98486.75;;;-5.55;100.00
12666;BME280;58531;59.050;17.416;2023-02-01T00:07:48;98481.53;;;-5.55;100.00
12666;BME280;58531;59.050;17.416;2023-02-01T00:10:15;98488.97;;;-5.57;100.00
12666;BME280;58531;59.050;17.416;2023-02-01T00:12:44;98489.31;;;-5.48;100.00
12666;BME280;58531;59.050;17.416;2023-02-01T00:15:11;98494.09;;;-5.36;100.00
12666;BME280;58531;59.050;17.416;2023-02-01T00:17:38;98486.56;;;-5.27;100.00
12666;BME280;58531;59.050;17.416;2023-02-01T00:20:05;98492.84;;;-5.18;100.00
12666;BME280;58531;59.050;17.416;2023-02-01T00:22:33;98494.97;;;-5.06;100.00
12666;BME280;58531;59.050;17.416;2023-02-01T00:25:00;98501.97;;;-4.96;100.00
12666;BME280;58531;59.050;17.416;2023-02-01T00:27:26;98504.88;;;-4.87;100.00
12666;BME280;58531;59.050;17.416;2023-02-01T00:29:55;98509.28;;;-4.80;100.00
12666;BME280;58531;59.050;17.416;2023-02-01T00:32:22;98503.31;;;-4.74;100.00
12666;BME280;58531;59.050;17.416;2023-02-01T00:34:49;98500.66;;;-4.70;100.00
12666;BME280;58531;59.050;17.416;2023-02-01T00:37:16;98502.91;;;-4.69;100.00
12666;BME280;58531;59.050;17.416;2023-02-01T00:39:43;98503.25;;;-4.70;100.00
12666;BME280;58531;59.050;17.416;2023-02-01T00:42:10;98496.56;;;-4.71;100.00
12666;BME280;58531;59.050;17.416;2023-02-01T00:44:36;98496.97;;;-4.73;100.00
12666;BME280;58531;59.050;17.416;2023-02-01T00:47:05;98497.75;;;-4.79;100.00
12666;BME280;58531;59.050;17.416;2023-02-01T00:49:32;98498.19;;;-4.84;100.00
12666;BME280;58531;59.050;17.416;2023-02-01T00:51:58;98503.03;;;-4.90;100.00
12666;BME280;58531;59.050;17.416;2023-02-01T00:54:25;98493.78;;;-4.94;100.00
12666;BME280;58531;59.050;17.416;2023-02-01T00:56:52;98491.59;;;-4.99;100.00
12666;BME280;58531;59.050;17.416;2023-02-01T00:59:19;98492.38;;;-5.06;100.00
12666;BME280;58531;59.050;17.416;2023-02-01T01:01:46;98483.88;;;-5.10;100.00
12666;BME280;58531;59.050;17.416;2023-02-01T01:04:14;98482.41;;;-5.14;100.00
12666;BME280;58531;59.050;17.416;2023-02-01T01:06:41;98479.09;;;-5.18;100.00
12666;BME280;58531;59.050;17.416;2023-02-01T01:09:08;98481.31;;;-5.20;100.00
12666;BME280;58531;59.050;17.416;2023-02-01T01:11:36;98478.00;;;-5.24;100.00
12666;BME280;58531;59.050;17.416;2023-02-01T01:14:05;98481.38;;;-5.24;100.00
12666;BME280;58531;59.050;17.416;2023-02-01T01:16:33;98481.00;;;-5.29;100.00
12666;BME280;58531;59.050;17.416;2023-02-01T01:19:00;98483.25;;;-5.31;100.00
12666;BME280;58531;59.050;17.416;2023-02-01T01:21:29;98488.84;;;-5.33;100.00
12666;BME280;58531;59.050;17.416;2023-02-01T01:23:57;98488.09;;;-5.30;100.00
12666;BME280;58531;59.050;17.416;2023-02-01T01:26:25;98483.97;;;-5.27;100.00
12666;BME280;58531;59.050;17.416;2023-02-01T01:28:55;98486.16;;;-5.19;100.00
12666;BME280;58531;59.050;17.416;2023-02-01T01:31:23;98489.44;;;-5.11;100.00
12666;BME280;58531;59.050;17.416;2023-02-01T01:33:51;98484.94;;;-5.04;100.00
12666;BME280;58531;59.050;17.416;2023-02-01T01:36:18;98489.34;;;-4.97;100.00
12666;BME280;58531;59.050;17.416;2023-02-01T01:38:47;98493.03;;;-4.91;100.00
12666;BME280;58531;59.050;17.416;2023-02-01T01:41:16;98495.19;;;-4.83;100.00
12666;BME280;58531;59.050;17.416;2023-02-01T01:43:53;98501.81;;;-4.75;100.00
12666;BME280;58531;59.050;17.416;2023-02-01T01:46:21;98498.44;;;-4.72;100.00
12666;BME280;58531;59.050;17.416;2023-02-01T01:48:51;98492.44;;;-4.66;100.00
12666;BME280;58531;59.050;17.416;2023-02-01T01:51:21;98495.72;;;-4.58;100.00
12666;BME280;58531;59.050;17.416;2023-02-01T01:53:56;98489.72;;;-4.52;100.00
12666;BME280;58531;59.050;17.416;2023-02-01T01:56:25;98486.69;;;-4.47;100.00
12666;BME280;58531;59.050;17.416;2023-02-01T01:58:53;98493.34;;;-4.42;100.00
12666;BME280;58531;59.050;17.416;2023-02-01T02:01:20;98488.84;;;-4.38;100.00
12666;BME280;58531;59.050;17.416;2023-02-01T02:03:47;98485.88;;;-4.37;100.00
12666;BME280;58531;59.050;17.416;2023-02-01T02:06:27;98483.97;;;-4.36;100.00
12666;BME280;58531;59.050;17.416;2023-02-01T02:08:59;98481.78;;;-4.38;100.00
12666;BME280;58531;59.050;17.416;2023-02-01T02:11:26;98479.94;;;-4.41;100.00
12666;BME280;58531;59.050;17.416;2023-02-01T02:13:55;98476.28;;;-4.50;100.00
12666;BME280;58531;59.050;17.416;2023-02-01T02:16:38;98473.31;;;-4.49;100.00
12666;BME280;58531;59.050;17.416;2023-02-01T02:19:27;98472.63;;;-4.53;100.00
12666;BME280;58531;59.050;17.416;2023-02-01T02:22:43;98474.88;;;-4.58;100.00
12666;BME280;58531;59.050;17.416;2023-02-01T02:25:24;98484.25;;;-4.64;100.00
12666;BME280;58531;59.050;17.416;2023-02-01T02:28:02;98480.91;;;-4.65;100.00
12666;BME280;58531;59.050;17.416;2023-02-01T02:30:52;98489.06;;;-4.63;100.00
12666;BME280;58531;59.050;17.416;2023-02-01T02:33:41;98496.88;;;-4.63;100.00
12666;BME280;58531;59.050;17.416;2023-02-01T02:36:13;98496.41;;;-4.51;100.00
12666;BME280;58531;59.050;17.416;2023-02-01T02:38:49;98494.88;;;-4.45;100.00
12666;BME280;58531;59.050;17.416;2023-02-01T02:41:23;98507.13;;;-4.42;100.00
12666;BME280;58531;59.050;17.416;2023-02-01T02:44:19;98502.22;;;-4.36;100.00
12666;BME280;58531;59.050;17.416;2023-02-01T02:47:10;98505.06;;;-4.24;100.00
12666;BME280;58531;59.050;17.416;2023-02-01T02:49:58;98505.34;;;-4.15;100.00
12666;BME280;58531;59.050;17.416;2023-02-01T02:52:52;98496.69;;;-4.05;100.00
12666;BME280;58531;59.050;17.416;2023-02-01T02:55:39;98497.34;;;-3.97;100.00
12666;BME280;58531;59.050;17.416;2023-02-01T02:58:07;98498.44;;;-3.95;100.00
12666;BME280;58531;59.050;17.416;2023-02-01T03:00:53;98496.53;;;-3.91;100.00
12666;BME280;58531;59.050;17.416;2023-02-01T03:03:39;98495.75;;;-3.88;100.00
12666;BME280;58531;59.050;17.416;2023-02-01T03:06:25;98489.78;;;-3.85;100.00
12666;BME280;58531;59.050;17.416;2023-02-01T03:08:54;98489.78;;;-3.85;100.00
12666;BME280;58531;59.050;17.416;2023-02-01T03:11:24;98492.31;;;-3.81;100.00
12666;BME280;58531;59.050;17.416;2023-02-01T03:14:14;98479.19;;;-3.74;100.00
12666;BME280;58531;59.050;17.416;2023-02-01T03:16:46;98490.28;;;-3.67;100.00
12666;BME280;58531;59.050;17.416;2023-02-01T03:19:16;98481.66;;;-3.64;100.00
12666;BME280;58531;59.050;17.416;2023-02-01T03:21:48;98484.41;;;-3.74;100.00
12666;BME280;58531;59.050;17.416;2023-02-01T03:24:21;98486.63;;;-3.73;100.00
12666;BME280;58531;59.050;17.416;2023-02-01T03:27:03;98477.66;;;-3.72;100.00
12666;BME280;58531;59.050;17.416;2023-02-01T03:29:37;98481.41;;;-3.73;100.00
12666;BME280;58531;59.050;17.416;2023-02-01T03:32:05;98471.03;;;-3.76;100.00
12666;BME280;58531;59.050;17.416;2023-02-01T03:34:32;98470.63;;;-3.75;100.00
12666;BME280;58531;59.050;17.416;2023-02-01T03:37:03;98482.09;;;-3.69;100.00
12666;BME280;58531;59.050;17.416;2023-02-01T03:39:35;98476.88;;;-3.69;100.00
12666;BME280;58531;59.050;17.416;2023-02-01T03:42:04;98485.75;;;-3.63;100.00
12666;BME280;58531;59.050;17.416;2023-02-01T03:44:36;98492.03;;;-3.57;100.00
12666;BME280;58531;59.050;17.416;2023-02-01T03:47:06;98485.25;;;-3.51;100.00
12666;BME280;58531;59.050;17.416;2023-02-01T03:49:36;98487.75;;;-3.44;100.00
12666;BME280;58531;59.050;17.416;2023-02-01T03:52:07;98479.94;;;-3.44;100.00
12666;BME280;58531;59.050;17.416;2023-02-01T03:54:39;98485.44;;;-3.39;100.00
12666;BME280;58531;59.050;17.416;2023-02-01T03:57:13;98480.91;;;-3.35;100.00
12666;BME280;58531;59.050;17.416;2023-02-01T03:59:43;98493.16;;;-3.32;100.00
12666;BME280;58531;59.050;17.416;2023-02-01T04:02:11;98489.53;;;-3.38;100.00
12666;BME280;58531;59.050;17.416;2023-02-01T04:04:38;98496.50;;;-3.31;100.00
12666;BME280;58531;59.050;17.416;2023-02-01T04:07:06;98485.28;;;-3.28;100.00
12666;BME280;58531;59.050;17.416;2023-02-01T04:09:33;98494.56;;;-3.24;100.00
12666;BME280;58531;59.050;17.416;2023-02-01T04:12:00;98496.31;;;-3.17;100.00
12666;BME280;58531;59.050;17.416;2023-02-01T04:14:28;98509.72;;;-3.15;100.00
12666;BME280;58531;59.050;17.416;2023-02-01T04:16:54;98511.19;;;-3.14;100.00
12666;BME280;58531;59.050;17.416;2023-02-01T04:19:21;98514.56;;;-3.14;100.00
12666;BME280;58531;59.050;17.416;2023-02-01T04:21:48;98510.38;;;-3.08;100.00
12666;BME280;58531;59.050;17.416;2023-02-01T04:24:16;98517.00;;;-3.03;100.00
12666;BME280;58531;59.050;17.416;2023-02-01T04:26:43;98521.44;;;-3.00;100.00
12666;BME280;58531;59.050;17.416;2023-02-01T04:29:10;98515.09;;;-2.99;100.00
12666;BME280;58531;59.050;17.416;2023-02-01T04:31:37;98516.16;;;-2.97;100.00
12666;BME280;58531;59.050;17.416;2023-02-01T04:34:04;98514.78;;;-3.05;100.00
12666;BME280;58531;59.050;17.416;2023-02-01T04:36:31;98517.00;;;-3.03;100.00
12666;BME280;58531;59.050;17.416;2023-02-01T04:38:58;98511.03;;;-3.04;100.00
12666;BME280;58531;59.050;17.416;2023-02-01T04:41:26;98516.22;;;-3.00;100.00
12666;BME280;58531;59.050;17.416;2023-02-01T04:43:54;98517.69;;;-2.99;100.00
12666;BME280;58531;59.050;17.416;2023-02-01T04:46:21;98505.78;;;-3.00;100.00
12666;BME280;58531;59.050;17.416;2023-02-01T04:48:48;98508.28;;;-2.93;100.00
12666;BME280;58531;59.050;17.416;2023-02-01T04:51:15;98513.84;;;-2.91;100.00
12666;BME280;58531;59.050;17.416;2023-02-01T04:53:43;98504.09;;;-2.87;100.00
12666;BME280;58531;59.050;17.416;2023-02-01T04:56:10;98512.66;;;-2.87;100.00
12666;BME280;58531;59.050;17.416;2023-02-01T04:58:38;98502.22;;;-2.87;100.00
12666;BME280;58531;59.050;17.416;2023-02-01T05:01:06;98503.31;;;-2.84;100.00
12666;BME280;58531;59.050;17.416;2023-02-01T05:03:34;98495.13;;;-2.86;100.00
12666;BME280;58531;59.050;17.416;2023-02-01T05:06:01;98499.56;;;-2.83;100.00
12666;BME280;58531;59.050;17.416;2023-02-01T05:08:29;98512.13;;;-2.78;100.00
12666;BME280;58531;59.050;17.416;2023-02-01T05:10:56;98506.13;;;-2.75;100.00
12666;BME280;58531;59.050;17.416;2023-02-01T05:13:24;98508.72;;;-2.75;100.00
12666;BME280;58531;59.050;17.416;2023-02-01T05:16:10;98506.13;;;-2.75;100.00
12666;BME280;58531;59.050;17.416;2023-02-01T05:18:37;98517.31;;;-2.75;100.00
12666;BME280;58531;59.050;17.416;2023-02-01T05:21:04;98512.47;;;-2.76;100.00
12666;BME280;58531;59.050;17.416;2023-02-01T05:23:31;98508.34;;;-2.74;100.00
12666;BME280;58531;59.050;17.416;2023-02-01T05:26:18;98515.78;;;-2.72;100.00
12666;BME280;58531;59.050;17.416;2023-02-01T05:28:44;98515.75;;;-2.69;100.00
12666;BME280;58531;59.050;17.416;2023-02-01T05:31:13;98507.84;;;-2.65;100.00
12666;BME280;58531;59.050;17.416;2023-02-01T05:33:40;98511.94;;;-2.64;100.00
12666;BME280;58531;59.050;17.416;2023-02-01T05:36:07;98502.63;;;-2.65;100.00
12666;BME280;58531;59.050;17.416;2023-02-01T05:38:34;98511.59;;;-2.66;100.00
12666;BME280;58531;59.050;17.416;2023-02-01T05:41:00;98510.44;;;-2.65;100.00
12666;BME280;58531;59.050;17.416;2023-02-01T05:43:27;98510.44;;;-2.65;100.00
12666;BME280;58531;59.050;17.416;2023-02-01T05:45:54;98514.88;;;-2.62;100.00
12666;BME280;58531;59.050;17.416;2023-02-01T05:48:23;98518.19;;;-2.58;100.00
12666;BME280;58531;59.050;17.416;2023-02-01T05:50:49;98527.38;;;-2.50;100.00
12666;BME280;58531;59.050;17.416;2023-02-01T05:53:16;98528.00;;;-2.43;100.00
12666;BME280;58531;59.050;17.416;2023-02-01T05:55:43;98526.47;;;-2.40;100.00
12666;BME280;58531;59.050;17.416;2023-02-01T05:58:10;98530.91;;;-2.37;100.00
12666;BME280;58531;59.050;17.416;2023-02-01T06:00:37;98528.97;;;-2.33;100.00
12666;BME280;58531;59.050;17.416;2023-02-01T06:03:04;98532.28;;;-2.30;100.00
12666;BME280;58531;59.050;17.416;2023-02-01T06:05:32;98527.69;;;-2.26;100.00
12666;BME280;58531;59.050;17.416;2023-02-01T06:07:59;98539.97;;;-2.23;100.00
12666;BME280;58531;59.050;17.416;2023-02-01T06:10:26;98538.38;;;-2.17;100.00
12666;BME280;58531;59.050;17.416;2023-02-01T06:12:53;98539.47;;;-2.14;100.00
12666;BME280;58531;59.050;17.416;2023-02-01T06:15:20;98535.28;;;-2.12;100.00
12666;BME280;58531;59.050;17.416;2023-02-01T06:17:47;98536.44;;;-2.13;100.00
12666;BME280;58531;59.050;17.416;2023-02-01T06:20:15;98540.19;;;-2.14;100.00
12666;BME280;58531;59.050;17.416;2023-02-01T06:22:43;98532.75;;;-2.15;100.00
12666;BME280;58531;59.050;17.416;2023-02-01T06:25:10;98543.59;;;-2.17;100.00
12666;BME280;58531;59.050;17.416;2023-02-01T06:27:37;98538.78;;;-2.18;100.00
12666;BME280;58531;59.050;17.416;2023-02-01T06:30:05;98540.25;;;-2.17;100.00
12666;BME280;58531;59.050;17.416;2023-02-01T06:32:32;98539.50;;;-2.18;100.00
12666;BME280;58531;59.050;17.416;2023-02-01T06:34:59;98550.03;;;-2.21;100.00
12666;BME280;58531;59.050;17.416;2023-02-01T06:37:26;98549.28;;;-2.22;100.00
12666;BME280;58531;59.050;17.416;2023-02-01T06:39:56;98547.00;;;-2.20;100.00
12666;BME280;58531;59.050;17.416;2023-02-01T06:42:23;98549.63;;;-2.20;100.00
12666;BME280;58531;59.050;17.416;2023-02-01T06:44:49;98546.56;;;-2.15;100.00
12666;BME280;58531;59.050;17.416;2023-02-01T06:47:16;98543.94;;;-2.15;100.00
12666;BME280;58531;59.050;17.416;2023-02-01T06:49:43;98546.88;;;-2.13;100.00
12666;BME280;58531;59.050;17.416;2023-02-01T06:52:10;98556.56;;;-2.10;100.00
12666;BME280;58531;59.050;17.416;2023-02-01T06:54:37;98541.63;;;-2.09;100.00
12666;BME280;58531;59.050;17.416;2023-02-01T06:57:05;98549.13;;;-2.11;100.00
12666;BME280;58531;59.050;17.416;2023-02-01T06:59:32;98545.03;;;-2.12;100.00
12666;BME280;58531;59.050;17.416;2023-02-01T07:01:59;98543.88;;;-2.11;100.00
12666;BME280;58531;59.050;17.416;2023-02-01T07:04:26;98547.22;;;-2.11;100.00
12666;BME280;58531;59.050;17.416;2023-02-01T07:06:52;98549.91;;;-2.14;100.00
12666;BME280;58531;59.050;17.416;2023-02-01T07:09:19;98553.25;;;-2.14;100.00
12666;BME280;58531;59.050;17.416;2023-02-01T07:11:46;98553.66;;;-2.15;100.00
12666;BME280;58531;59.050;17.416;2023-02-01T07:14:15;98560.06;;;-2.20;100.00
12666;BME280;58531;59.050;17.416;2023-02-01T07:16:41;98564.84;;;-2.15;100.00
12666;BME280;58531;59.050;17.416;2023-02-01T07:19:08;98565.16;;;-2.09;100.00
12666;BME280;58531;59.050;17.416;2023-02-01T07:21:35;98563.25;;;-2.09;100.00
12666;BME280;58531;59.050;17.416;2023-02-01T07:24:02;98559.84;;;-2.06;100.00
12666;BME280;58531;59.050;17.416;2023-02-01T07:26:29;98571.72;;;-2.01;100.00
12666;BME280;58531;59.050;17.416;2023-02-01T07:28:56;98576.56;;;-2.00;100.00
12666;BME280;58531;59.050;17.416;2023-02-01T07:31:24;98578.41;;;-2.00;100.00
12666;BME280;58531;59.050;17.416;2023-02-01T07:33:54;98583.13;;;-1.92;100.00
12666;BME280;58531;59.050;17.416;2023-02-01T07:36:23;98586.78;;;-1.86;100.00
12666;BME280;58531;59.050;17.416;2023-02-01T07:38:49;98582.22;;;-1.82;100.00
12666;BME280;58531;59.050;17.416;2023-02-01T07:41:17;98585.81;;;-1.76;100.00
12666;BME280;58531;59.050;17.416;2023-02-01T07:43:44;98578.38;;;-1.77;100.00
12666;BME280;58531;59.050;17.416;2023-02-01T07:46:11;98583.63;;;-1.77;100.00
12666;BME280;58531;59.050;17.416;2023-02-01T07:48:42;98583.19;;;-1.76;100.00
12666;BME280;58531;59.050;17.416;2023-02-01T07:51:10;98581.06;;;-1.81;100.00
12666;BME280;58531;59.050;17.416;2023-02-01T07:53:38;98581.81;;;-1.80;100.00
12666;BME280;58531;59.050;17.416;2023-02-01T07:56:10;98583.69;;;-1.81;100.00
12666;BME280;58531;59.050;17.416;2023-02-01T07:58:37;98583.69;;;-1.81;100.00
12666;BME280;58531;59.050;17.416;2023-02-01T08:01:04;98585.81;;;-1.76;100.00
12666;BME280;58531;59.050;17.416;2023-02-01T08:03:47;98589.19;;;-1.75;100.00
12666;BME280;58531;59.050;17.416;2023-02-01T08:06:15;98594.63;;;-1.66;100.00
12666;BME280;58531;59.050;17.416;2023-02-01T08:08:42;98590.94;;;-1.69;100.00
12666;BME280;58531;59.050;17.416;2023-02-01T08:11:10;98586.66;;;-1.59;100.00
12666;BME280;58531;59.050;17.416;2023-02-01T08:13:37;98585.34;;;-1.51;100.00
12666;BME280;58531;59.050;17.416;2023-02-01T08:16:06;98586.78;;;-1.47;100.00
12666;BME280;58531;59.050;17.416;2023-02-01T08:18:34;98588.94;;;-1.42;100.00
12666;BME280;58531;59.050;17.416;2023-02-01T08:21:07;98587.13;;;-1.45;100.00
12666;BME280;58531;59.050;17.416;2023-02-01T08:23:35;98580.47;;;-1.30;100.00
12666;BME280;58531;59.050;17.416;2023-02-01T08:26:08;98590.25;;;-1.15;100.00
12666;BME280;58531;59.050;17.416;2023-02-01T08:28:35;98581.97;;;-1.13;100.00
12666;BME280;58531;59.050;17.416;2023-02-01T08:31:05;98571.63;;;-1.20;100.00
12666;BME280;58531;59.050;17.416;2023-02-01T08:33:32;98578.81;;;-1.24;100.00
12666;BME280;58531;59.050;17.416;2023-02-01T08:36:00;98579.63;;;-1.27;100.00
12666;BME280;58531;59.050;17.416;2023-02-01T08:38:28;98573.69;;;-1.27;100.00
12666;BME280;58531;59.050;17.416;2023-02-01T08:40:55;98584.06;;;-1.24;100.00
12666;BME280;58531;59.050;17.416;2023-02-01T08:43:23;98581.78;;;-1.22;100.00
12666;BME280;58531;59.050;17.416;2023-02-01T08:45:50;98576.41;;;-1.15;100.00
12666;BME280;58531;59.050;17.416;2023-02-01T08:48:17;98586.59;;;-1.01;100.00
12666;BME280;58531;59.050;17.416;2023-02-01T08:50:43;98582.81;;;-1.00;100.00
12666;BME280;58531;59.050;17.416;2023-02-01T08:53:10;98589.41;;;-0.92;100.00
12666;BME280;58531;59.050;17.416;2023-02-01T08:55:40;98589.25;;;-0.85;100.00
12666;BME280;58531;59.050;17.416;2023-02-01T08:58:07;98584.81;;;-0.88;100.00
12666;BME280;58531;59.050;17.416;2023-02-01T09:00:34;98584.06;;;-0.89;100.00
12666;BME280;58531;59.050;17.416;2023-02-01T09:03:01;98585.25;;;-0.74;100.00
12666;BME280;58531;59.050;17.416;2023-02-01T09:05:27;98587.44;;;-0.72;100.00
12666;BME280;58531;59.050;17.416;2023-02-01T09:07:54;98590.34;;;-0.67;100.00
12666;BME280;58531;59.050;17.416;2023-02-01T09:10:21;98597.88;;;-0.69;100.00
12666;BME280;58531;59.050;17.416;2023-02-01T09:12:49;98601.34;;;-0.75;100.00
12666;BME280;58531;59.050;17.416;2023-02-01T09:15:17;98597.13;;;-0.69;100.00
12666;BME280;58531;59.050;17.416;2023-02-01T09:17:44;98601.22;;;-0.52;100.00
12666;BME280;58531;59.050;17.416;2023-02-01T09:20:11;98602.59;;;-0.48;100.00
12666;BME280;58531;59.050;17.416;2023-02-01T09:22:38;98598.53;;;-0.33;100.00
12666;BME280;58531;59.050;17.416;2023-02-01T09:25:07;98601.31;;;-0.24;100.00
12666;BME280;58531;59.050;17.416;2023-02-01T09:27:34;98613.13;;;-0.16;100.00
12666;BME280;58531;59.050;17.416;2023-02-01T09:30:03;98617.53;;;-0.13;100.00
12666;BME280;58531;59.050;17.416;2023-02-01T09:32:30;98618.41;;;0.12;100.00
12666;BME280;58531;59.050;17.416;2023-02-01T09:34:57;98617.09;;;0.04;100.00
12666;BME280;58531;59.050;17.416;2023-02-01T09:37:24;98621.34;;;0.14;100.00
12666;BME280;58531;59.050;17.416;2023-02-01T09:39:51;98619.91;;;-0.03;100.00
12666;BME280;58531;59.050;17.416;2023-02-01T09:42:31;98617.75;;;0.08;100.00
12666;BME280;58531;59.050;17.416;2023-02-01T09:45:14;98619.06;;;0.16;100.00
12666;BME280;58531;59.050;17.416;2023-02-01T09:47:48;98618.16;;;0.07;100.00
12666;BME280;58531;59.050;17.416;2023-02-01T09:50:18;98626.94;;;0.16;100.00
12666;BME280;58531;59.050;17.416;2023-02-01T09:52:53;98620.44;;;0.21;100.00
12666;BME280;58531;59.050;17.416;2023-02-01T09:55:32;98626.38;;;0.37;100.00
12666;BME280;58531;59.050;17.416;2023-02-01T09:58:04;98627.84;;;0.38;100.00
12666;BME280;58531;59.050;17.416;2023-02-01T10:00:37;98625.19;;;0.26;100.00
12666;BME280;58531;59.050;17.416;2023-02-01T10:03:07;98634.75;;;0.32;100.00
12666;BME280;58531;59.050;17.416;2023-02-01T10:08:33;98634.34;;;0.34;100.00
12666;BME280;58531;59.050;17.416;2023-02-01T10:11:13;98636.16;;;0.37;100.00
12666;BME280;58531;59.050;17.416;2023-02-01T10:13:54;98632.94;;;0.29;100.00
12666;BME280;58531;59.050;17.416;2023-02-01T10:16:31;98648.19;;;0.34;100.00
12666;BME280;58531;59.050;17.416;2023-02-01T10:19:14;98640.22;;;0.25;100.00
12666;BME280;58531;59.050;17.416;2023-02-01T10:21:52;98636.19;;;0.21;100.00
12666;BME280;58531;59.050;17.416;2023-02-01T10:24:28;98639.13;;;0.23;100.00
12666;BME280;58531;59.050;17.416;2023-02-01T10:27:02;98636.19;;;0.05;100.00
12666;BME280;58531;59.050;17.416;2023-02-01T10:29:37;98629.41;;;0.07;100.00
12666;BME280;58531;59.050;17.416;2023-02-01T10:32:13;98640.28;;;0.06;100.00
12666;BME280;58531;59.050;17.416;2023-02-01T10:34:41;98635.72;;;-0.06;100.00
12666;BME280;58531;59.050;17.416;2023-02-01T10:37:16;98646.72;;;-0.11;100.00
12666;BME280;58531;59.050;17.416;2023-02-01T10:39:46;98646.94;;;-0.05;100.00
12666;BME280;58531;59.050;17.416;2023-02-01T10:42:14;98648.19;;;-0.10;100.00
12666;BME280;58531;59.050;17.416;2023-02-01T10:44:43;98642.84;;;-0.06;100.00
12666;BME280;58531;59.050;17.416;2023-02-01T10:47:14;98648.84;;;-0.06;100.00
12666;BME280;58531;59.050;17.416;2023-02-01T10:49:49;98644.97;;;-0.02;100.00
12666;BME280;58531;59.050;17.416;2023-02-01T10:52:20;98647.28;;;-0.03;100.00
12666;BME280;58531;59.050;17.416;2023-02-01T10:54:53;98649.56;;;-0.05;100.00
12666;BME280;58531;59.050;17.416;2023-02-01T10:57:22;98652.19;;;0.10;100.00
12666;BME280;58531;59.050;17.416;2023-02-01T10:59:51;98656.78;;;0.22;100.00
12666;BME280;58531;59.050;17.416;2023-02-01T11:02:26;98651.41;;;0.42;100.00
12666;BME280;58531;59.050;17.416;2023-02-01T11:05:00;98654.91;;;0.51;100.00
12666;BME280;58531;59.050;17.416;2023-02-01T11:07:28;98662.09;;;0.63;100.00
12666;BME280;58531;59.050;17.416;2023-02-01T11:09:56;98655.81;;;0.73;100.00
12666;BME280;58531;59.050;17.416;2023-02-01T11:12:28;98660.34;;;0.85;100.00
12666;BME280;58531;59.050;17.416;2023-02-01T11:15:02;98654.00;;;1.11;100.00
12666;BME280;58531;59.050;17.416;2023-02-01T11:17:35;98658.66;;;1.32;100.00
12666;BME280;58531;59.050;17.416;2023-02-01T11:20:15;98657.09;;;1.34;100.00
12666;BME280;58531;59.050;17.416;2023-02-01T11:22:46;98658.66;;;1.32;100.00
12666;BME280;58531;59.050;17.416;2023-02-01T11:25:16;98669.06;;;1.23;100.00
12666;BME280;58531;59.050;17.416;2023-02-01T11:27:43;98663.81;;;0.82;100.00
12666;BME280;58531;59.050;17.416;2023-02-01T11:30:15;98654.44;;;0.69;100.00
12666;BME280;58531;59.050;17.416;2023-02-01T11:32:44;98651.94;;;0.78;100.00
12666;BME280;58531;59.050;17.416;2023-02-01T11:35:17;98663.31;;;0.87;100.00
12666;BME280;58531;59.050;17.416;2023-02-01T11:37:50;98659.31;;;0.83;100.00
12666;BME280;58531;59.050;17.416;2023-02-01T11:40:28;98661.25;;;0.66;100.00
12666;BME280;58531;59.050;17.416;2023-02-01T11:42:57;98671.06;;;0.78;100.00
12666;BME280;58531;59.050;17.416;2023-02-01T11:45:26;98663.78;;;0.70;100.00
12666;BME280;58531;59.050;17.416;2023-02-01T11:47:57;98662.13;;;0.47;100.00
12666;BME280;58531;59.050;17.416;2023-02-01T11:50:31;98669.34;;;0.43;100.00
12666;BME280;58531;59.050;17.416;2023-02-01T11:53:09;98674.44;;;0.50;100.00
12666;BME280;58531;59.050;17.416;2023-02-01T11:55:56;98676.56;;;0.55;100.00
12666;BME280;58531;59.050;17.416;2023-02-01T11:58:36;98675.25;;;0.47;100.00
12666;BME280;58531;59.050;17.416;2023-02-01T12:01:22;98677.19;;;0.59;100.00
12666;BME280;58531;59.050;17.416;2023-02-01T12:07:14;98677.91;;;0.31;100.00
12666;BME280;58531;59.050;17.416;2023-02-01T12:09:52;98678.69;;;0.44;100.00
12666;BME280;58531;59.050;17.416;2023-02-01T12:12:26;98682.81;;;0.74;100.00
12666;BME280;58531;59.050;17.416;2023-02-01T12:15:26;98685.09;;;1.00;100.00
12666;BME280;58531;59.050;17.416;2023-02-01T12:18:29;98679.88;;;1.13;100.00
12666;BME280;58531;59.050;17.416;2023-02-01T12:21:06;98681.44;;;1.10;100.00
12666;BME280;58531;59.050;17.416;2023-02-01T12:23:59;98691.97;;;1.10;100.00
12666;BME280;58531;59.050;17.416;2023-02-01T12:26:50;98690.00;;;0.86;100.00
12666;BME280;58531;59.050;17.416;2023-02-01T12:29:45;98685.34;;;0.77;100.00
12666;BME280;58531;59.050;17.416;2023-02-01T12:32:24;98675.75;;;0.71;100.00
12666;BME280;58531;59.050;17.416;2023-02-01T12:35:04;98675.88;;;0.67;100.00
12666;BME280;58531;59.050;17.416;2023-02-01T12:37:54;98674.97;;;0.58;100.00
12666;BME280;58531;59.050;17.416;2023-02-01T12:40:39;98681.06;;;0.55;100.00
12666;BME280;58531;59.050;17.416;2023-02-01T12:43:13;98686.94;;;0.59;100.00
12666;BME280;58531;59.050;17.416;2023-02-01T12:45:50;98692.81;;;0.79;100.00
12666;BME280;58531;59.050;17.416;2023-02-01T12:48:28;98697.66;;;0.80;100.00
12666;BME280;58531;59.050;17.416;2023-02-01T12:51:01;98695.97;;;0.58;100.00
12666;BME280;58531;59.050;17.416;2023-02-01T12:53:33;98694.50;;;0.57;100.00
12666;BME280;58531;59.050;17.416;2023-02-01T12:56:11;98695.59;;;0.59;100.00
12666;BME280;58531;59.050;17.416;2023-02-01T12:58:43;98699.69;;;0.60;100.00
12666;BME280;58531;59.050;17.416;2023-02-01T13:01:14;98704.69;;;0.55;100.00
12666;BME280;58531;59.050;17.416;2023-02-01T13:03:48;98704.28;;;0.56;100.00
12666;BME280;58531;59.050;17.416;2023-02-01T13:06:19;98706.44;;;0.45;100.00
12666;BME280;58531;59.050;17.416;2023-02-01T13:08:50;98704.13;;;0.47;100.00